createdAt,value
2023-04-13T00:03:58.309Z,12.22
2023-04-13T00:09:00.896Z,12.22
2023-04-13T00:14:02.460Z,12.21
2023-04-13T00:19:04.338Z,12.15
2023-04-13T00:24:06.224Z,12.12
2023-04-13T00:29:08.160Z,12.12
2023-04-13T00:34:09.901Z,12.09
2023-04-13T00:39:11.516Z,12.08
2023-04-13T00:44:13.107Z,12.08
2023-04-13T00:49:15.313Z,12.04
2023-04-13T00:54:18.855Z,12.04
2023-04-13T00:59:21.008Z,12.01
2023-04-13T01:04:27.375Z,12.02
2023-04-13T01:09:34.978Z,12.04
2023-04-13T01:14:41.888Z,12.07
2023-04-13T01:20:14.190Z,12.08
2023-04-13T01:25:36.786Z,12.08
2023-04-13T01:30:39.429Z,12.12
2023-04-13T01:35:41.342Z,11.97
2023-04-13T01:40:48.261Z,11.98
2023-04-13T01:45:56.213Z,12.04
2023-04-13T01:51:01.513Z,12.07
2023-04-13T01:56:23.142Z,12.07
2023-04-13T02:01:30.569Z,11.93
2023-04-13T02:06:33.819Z,11.93
2023-04-13T02:11:39.467Z,11.95
2023-04-13T02:16:42.535Z,11.97
2023-04-13T02:21:44.796Z,11.92
2023-04-13T02:26:46.433Z,11.89
2023-04-13T02:31:48.921Z,11.87
2023-04-13T02:36:50.566Z,11.86
2023-04-13T02:41:52.204Z,11.82
2023-04-13T02:46:56.776Z,11.82
2023-04-13T02:51:59.354Z,11.80
2023-04-13T02:57:22.437Z,11.58
2023-04-13T03:02:29.285Z,11.72
2023-04-13T03:07:31.968Z,11.71
2023-04-13T03:12:34.036Z,11.67
2023-04-13T03:17:40.362Z,11.56
2023-04-13T03:22:45.180Z,11.52
2023-04-13T03:27:47.070Z,11.53
2023-04-13T03:32:52.411Z,11.33
2023-04-13T03:37:57.449Z,11.41
2023-04-13T03:43:10.427Z,11.36
2023-04-13T03:48:17.272Z,11.51
2023-04-13T03:53:18.871Z,11.41
2023-04-13T03:58:22.268Z,11.44
2023-04-13T04:03:25.715Z,11.36
2023-04-13T04:08:41.178Z,11.37
2023-04-13T04:13:53.180Z,11.29
2023-04-13T04:18:55.341Z,11.35
2023-04-13T04:23:57.957Z,11.28
2023-04-13T04:29:02.112Z,11.22
2023-04-13T04:34:05.365Z,11.27
2023-04-13T04:39:10.084Z,11.22
2023-04-13T04:44:25.289Z,11.20
2023-04-13T04:49:28.572Z,11.20
2023-04-13T04:54:32.863Z,11.17
2023-04-13T04:59:34.886Z,11.15
2023-04-13T05:04:38.760Z,11.14
2023-04-13T05:09:41.083Z,11.21
2023-04-13T05:14:42.846Z,11.24
2023-04-13T05:19:45.894Z,11.22
2023-04-13T05:25:06.504Z,11.32
2023-04-13T05:30:09.461Z,11.01
2023-04-13T05:35:13.774Z,11.12
2023-04-13T05:40:16.984Z,11.20
2023-04-13T05:45:18.679Z,11.07
2023-04-13T05:50:33.670Z,11.13
2023-04-13T05:55:35.740Z,11.04
2023-04-13T06:00:40.006Z,11.21
2023-04-13T06:05:46.916Z,11.12
2023-04-13T06:10:49.884Z,11.08
2023-04-13T06:15:52.842Z,10.94
2023-04-13T06:20:55.097Z,11.17
2023-04-13T06:25:57.650Z,10.92
2023-04-13T06:31:13.830Z,11.19
2023-04-13T06:36:18.237Z,11.17
2023-04-13T06:41:20.394Z,11.10
2023-04-13T06:46:23.818Z,11.01
2023-04-13T06:51:28.129Z,11.00
2023-04-13T06:56:32.317Z,10.96
2023-04-13T07:01:34.659Z,11.04
2023-04-13T07:06:36.765Z,11.21
2023-04-13T07:11:38.451Z,11.25
2023-04-13T07:16:40.247Z,11.25
2023-04-13T07:21:42.342Z,11.34
2023-04-13T07:26:44.114Z,11.39
2023-04-13T07:31:45.945Z,11.62
2023-04-13T07:36:47.825Z,11.49
2023-04-13T07:41:53.152Z,11.38
2023-04-13T07:47:03.013Z,11.33
2023-04-13T07:52:06.415Z,11.43
2023-04-13T07:57:10.856Z,11.76
2023-04-13T08:02:18.378Z,11.64
2023-04-13T08:07:23.704Z,11.73
2023-04-13T08:12:25.300Z,12.06
2023-04-13T08:17:28.108Z,11.84
2023-04-13T08:22:29.743Z,11.90
2023-04-13T08:27:31.566Z,11.87
2023-04-13T08:32:33.161Z,11.89
2023-04-13T08:37:35.229Z,12.16
2023-04-13T08:42:38.881Z,12.02
2023-04-13T08:47:41.476Z,12.30
2023-04-13T08:52:43.865Z,12.35
2023-04-13T08:57:51.559Z,12.59
2023-04-13T09:03:04.450Z,12.59
2023-04-13T09:08:08.517Z,12.60
2023-04-13T09:13:13.923Z,12.53
2023-04-13T09:18:16.139Z,12.76
2023-04-13T09:23:24.554Z,12.45
2023-04-13T09:28:26.575Z,12.72
2023-04-13T09:33:28.526Z,12.57
2023-04-13T09:38:31.607Z,12.34
2023-04-13T09:43:37.768Z,12.67
2023-04-13T09:48:40.044Z,12.45
2023-04-13T09:53:43.090Z,12.47
2023-04-13T09:58:46.490Z,12.26
2023-04-13T10:03:48.227Z,12.40
2023-04-13T10:08:49.856Z,12.62
2023-04-13T10:13:54.308Z,12.91
2023-04-13T10:19:14.683Z,12.98
2023-04-13T10:24:16.533Z,13.18
2023-04-13T10:29:30.273Z,13.46
2023-04-13T10:34:34.411Z,13.46
2023-04-13T10:39:36.827Z,13.24
2023-04-13T10:44:51.464Z,13.54
2023-04-13T10:49:53.161Z,13.24
2023-04-13T10:54:55.010Z,13.41
2023-04-13T10:59:59.357Z,13.22
2023-04-13T11:05:02.024Z,13.24
2023-04-13T11:10:04.333Z,13.45
2023-04-13T11:15:06.595Z,13.64
2023-04-13T11:20:11.241Z,13.57
2023-04-13T11:25:13.139Z,13.61
2023-04-13T11:30:14.710Z,13.49
2023-04-13T11:35:17.250Z,13.45
2023-04-13T11:40:22.917Z,13.90
2023-04-13T11:45:29.773Z,13.90
2023-04-13T11:50:32.171Z,13.84
2023-04-13T11:55:49.762Z,13.75
2023-04-13T12:00:59.924Z,13.76
2023-04-13T12:06:04.734Z,13.85
2023-04-13T12:11:38.974Z,13.94
2023-04-13T12:17:01.662Z,13.84
2023-04-13T12:21:56.689Z,13.89
2023-04-13T12:27:17.951Z,13.77
2023-04-13T12:32:20.304Z,13.72
2023-04-13T12:37:21.911Z,13.57
2023-04-13T12:42:23.636Z,14.03
2023-04-13T12:47:25.918Z,13.98
2023-04-13T12:52:29.382Z,13.76
2023-04-13T12:57:31.205Z,13.90
2023-04-13T13:02:32.900Z,14.12
2023-04-13T13:07:34.564Z,14.04
2023-04-13T13:12:36.444Z,13.76
2023-04-13T13:17:41.418Z,13.49
2023-04-13T13:22:43.259Z,13.63
2023-04-13T13:32:49.420Z,13.46
2023-04-13T13:37:51.106Z,13.52
2023-04-13T13:42:53.834Z,13.67
2023-04-13T13:47:57.850Z,13.75
2023-04-13T13:53:26.463Z,13.79
2023-04-13T13:58:28.116Z,13.48
2023-04-13T14:03:29.814Z,13.66
2023-04-13T14:08:31.529Z,13.73
2023-04-13T14:13:33.153Z,14.01
2023-04-13T14:18:34.778Z,13.93
2023-04-13T14:23:37.517Z,13.93
2023-04-13T14:28:39.151Z,13.68
2023-04-13T14:33:42.213Z,14.02
2023-04-13T14:38:44.076Z,13.95
2023-04-13T14:43:45.620Z,14.05
2023-04-13T14:48:47.278Z,14.01
2023-04-13T14:53:49.321Z,14.19
2023-04-13T14:58:51.030Z,14.08
2023-04-13T15:03:53.878Z,14.15
2023-04-13T15:08:55.810Z,14.11
2023-04-13T15:13:57.447Z,14.07
2023-04-13T15:18:59.571Z,13.93
2023-04-13T15:24:01.444Z,13.85
2023-04-13T15:29:03.358Z,13.77
2023-04-13T15:34:08.470Z,13.71
2023-04-13T15:39:10.223Z,13.87
2023-04-13T15:44:11.783Z,13.74
2023-04-13T15:49:13.475Z,13.53
2023-04-13T15:54:15.049Z,13.62
2023-04-13T15:59:16.729Z,13.68
2023-04-13T16:04:18.626Z,13.70
2023-04-13T16:09:20.324Z,13.66
2023-04-13T16:14:22.054Z,13.77
2023-04-13T16:19:23.774Z,13.62
2023-04-13T16:24:26.275Z,13.60
2023-04-13T16:29:28.877Z,13.60
2023-04-13T16:34:30.573Z,13.65
2023-04-13T16:39:32.687Z,13.53
2023-04-13T16:44:34.226Z,13.55
2023-04-13T16:49:35.925Z,13.59
2023-04-13T16:54:42.709Z,13.57
2023-04-13T16:59:44.416Z,13.48
2023-04-13T17:04:46.132Z,13.31
2023-04-13T17:09:47.719Z,13.27
2023-04-13T17:14:52.265Z,13.35
2023-04-13T17:19:54.525Z,13.17
2023-04-13T17:24:56.089Z,13.08
2023-04-13T17:29:57.876Z,13.02
2023-04-13T17:34:59.506Z,13.00
2023-04-13T17:40:01.232Z,12.95
2023-04-13T17:45:03.050Z,12.83
2023-04-13T17:50:05.021Z,12.75
2023-04-13T17:55:07.374Z,12.72
2023-04-13T18:00:09.546Z,12.68
2023-04-13T18:05:15.312Z,12.59
2023-04-13T18:10:16.999Z,12.63
2023-04-13T18:15:18.625Z,12.64
2023-04-13T18:20:20.582Z,12.59
2023-04-13T18:25:22.134Z,12.64
2023-04-13T18:30:23.675Z,12.67
2023-04-13T18:35:25.568Z,12.63
2023-04-13T18:40:27.169Z,12.65
2023-04-13T18:45:28.971Z,12.60
2023-04-13T18:50:30.671Z,12.64
2023-04-13T18:55:32.357Z,12.41
2023-04-13T19:00:33.933Z,12.43
2023-04-13T19:05:35.676Z,12.50
2023-04-13T19:10:37.327Z,12.40
2023-04-13T19:15:39.231Z,12.38
2023-04-13T19:20:40.876Z,12.32
2023-04-13T19:25:42.443Z,12.23
2023-04-13T19:30:44.153Z,12.21
2023-04-13T19:35:45.766Z,12.32
2023-04-13T19:40:47.388Z,12.22
2023-04-13T19:45:48.993Z,12.19
2023-04-13T19:50:50.803Z,12.11
2023-04-13T19:55:52.405Z,12.15
2023-04-13T20:00:54.043Z,12.10
2023-04-13T20:05:58.422Z,11.90
2023-04-13T20:11:00.314Z,12.03
2023-04-13T20:16:02.024Z,12.08
2023-04-13T20:21:03.837Z,12.05
2023-04-13T20:26:05.460Z,12.03
2023-04-13T20:31:08.317Z,12.00
2023-04-13T20:36:09.961Z,12.03
2023-04-13T20:41:13.887Z,12.00
2023-04-13T20:46:16.584Z,11.69
2023-04-13T20:51:19.060Z,11.61
2023-04-13T20:56:23.717Z,11.57
2023-04-13T21:01:25.403Z,11.56
2023-04-13T21:06:29.904Z,11.37
2023-04-13T21:11:31.827Z,11.36
2023-04-13T21:16:33.484Z,11.33
2023-04-13T21:21:35.996Z,11.27
2023-04-13T21:26:37.586Z,11.46
2023-04-13T21:31:39.234Z,11.48
2023-04-13T21:41:48.276Z,11.46
2023-04-13T21:46:49.869Z,11.54
2023-04-13T21:51:51.403Z,11.48
2023-04-13T21:56:52.953Z,11.36
2023-04-13T22:01:54.832Z,11.38
2023-04-13T22:06:56.633Z,11.27
2023-04-13T22:11:58.188Z,11.07
2023-04-13T22:16:59.763Z,10.97
2023-04-13T22:22:01.364Z,11.24
2023-04-13T22:27:03.582Z,11.28
2023-04-13T22:32:05.161Z,11.27
2023-04-13T22:37:06.991Z,11.19
2023-04-13T22:42:08.585Z,11.13
2023-04-13T22:47:10.280Z,11.17
2023-04-13T22:52:13.056Z,11.08
2023-04-13T22:57:14.742Z,10.99
2023-04-13T23:02:16.441Z,11.04
2023-04-13T23:07:18.086Z,11.09
2023-04-13T23:12:19.703Z,11.00
2023-04-13T23:17:21.366Z,11.05
2023-04-13T23:22:23.018Z,11.09
2023-04-13T23:27:25.516Z,11.04
2023-04-13T23:32:27.074Z,11.10
2023-04-13T23:37:28.674Z,10.98
2023-04-13T23:42:30.219Z,11.00
2023-04-13T23:47:32.072Z,10.92
2023-04-13T23:52:34.085Z,10.55
2023-04-13T23:57:35.812Z,10.95
